Terminal Aerodrome Forecast
Issued by NWS Billings, MT

Home | Current Version | Previous Version | Text Only | Print | Product List | Glossary On
Versions: 1 2 3 4 5 6 7 8 9 10 11 12 13 14 15 16 17 18 19 20 21 22 23 24 25 26 27 28 29 30
000
FTUS45 KBYZ 241720
TAFMLS
TAF
KMLS 241720Z 2418/2518 33015G25KT P6SM VCSH BKN030 BKN100
     FM242000 30018KT P6SM VCSH SCT030 BKN070
     FM250300 28010KT P6SM SCT070 BKN250
     FM251000 25012KT P6SM -SHSN BKN050 OVC100
     FM251500 27018KT 4SM -SHSN BKN025 OVC040=

USA.gov is the U.S. government's official web portal to all federal, state and local government web resources and services.